Time;durP1;ratioP1;P1;durP2;ratioP2;P2;SDS_P1;SDS_P2;PMS_P1;PMS_P2;Temp;Humidity;BMP_temperature;BMP_pressure;BME280_temperature;BME280_humidity;BME280_pressure;Samples;Min_cycle;Max_cycle;Signal;HPM_P1;HPM_P2
2024/03/08 00:01:40;;;;;;;;;;;;;;;23.01;45.69;93777.59;4977684;28;8674;-64
2024/03/08 00:04:08;;;;;;;;;;;;;;;23.01;45.48;93777.59;5022973;28;9061;-65
2024/03/08 00:06:36;;;;;;;;;;;;;;;23.02;45.44;93770.13;5017601;28;9142;-58
2024/03/08 00:09:07;;;;;;;;;;;;;;;23.02;45.68;93770.88;5011924;28;9411;-57
2024/03/08 00:11:34;;;;;;;;;;;;;;;23.00;45.38;93775.38;5001664;28;9856;-58
2024/03/08 00:14:06;;;;;;;;;;;;;;;22.93;45.21;93765.69;5019778;28;9054;-58
2024/03/08 00:16:33;;;;;;;;;;;;;;;22.98;45.49;93775.16;5021678;28;7624;-61
2024/03/08 00:19:01;;;;;;;;;;;;;;;22.99;45.39;93782.09;5018619;28;9037;-61
2024/03/08 00:21:28;;;;;;;;;;;;;;;22.99;45.16;93785.59;5080090;28;7102;-61
2024/03/08 00:23:56;;;;;;;;;;;;;;;23.00;45.26;93773.38;5095964;28;7034;-61
2024/03/08 00:26:33;;;;;;;;;;;;;;;22.99;45.30;93774.63;5095674;28;8775;-60
2024/03/08 00:29:05;;;;;;;;;;;;;;;22.99;45.48;93771.88;5091588;28;8483;-61
2024/03/08 00:31:35;;;;;;;;;;;;;;;22.99;45.30;93763.66;5097274;28;9123;-60
2024/03/08 00:34:11;;;;;;;;;;;;;;;22.98;45.06;93753.97;5082379;28;8818;-61
2024/03/08 00:36:45;;;;;;;;;;;;;;;23.01;45.02;93752.19;5082077;28;9372;-60
2024/03/08 00:39:38;;;;;;;;;;;;;;;23.02;45.57;93750.94;5090105;28;9133;-60
2024/03/08 00:42:43;;;;;;;;;;;;;;;23.02;45.62;93748.94;5014521;28;8761;-61
2024/03/08 00:45:12;;;;;;;;;;;;;;;23.00;45.02;93747.97;5010504;28;9413;-61
2024/03/08 00:47:43;;;;;;;;;;;;;;;23.01;45.04;93752.94;5032768;28;8968;-60
2024/03/08 00:50:10;;;;;;;;;;;;;;;23.02;45.56;93750.94;5004749;28;9180;-60
2024/03/08 00:52:37;;;;;;;;;;;;;;;23.01;45.43;93744.69;5014219;28;9058;-61
2024/03/08 00:55:05;;;;;;;;;;;;;;;23.01;45.58;93738.50;5014457;28;9527;-60
2024/03/08 00:57:38;;;;;;;;;;;;;;;23.00;45.44;93745.97;5011295;28;7011;-61
2024/03/08 01:00:21;;;;;;;;;;;;;;;23.00;45.31;93728.75;4999941;28;9248;-60
2024/03/08 01:02:56;;;;;;;;;;;;;;;23.00;45.43;93737.75;5017475;28;9030;-60
2024/03/08 01:05:26;;;;;;;;;;;;;;;23.00;45.29;93729.50;4998194;28;8152;-60
2024/03/08 01:08:11;;;;;;;;;;;;;;;23.00;45.17;93728.75;5029984;28;8725;-60
2024/03/08 01:10:37;;;;;;;;;;;;;;;23.00;45.13;93735.00;5015454;28;9415;-60
2024/03/08 01:13:05;;;;;;;;;;;;;;;22.99;44.89;93728.00;5016329;28;8963;-61
2024/03/08 01:15:46;;;;;;;;;;;;;;;22.96;45.55;93720.81;5012498;28;9421;-60
2024/03/08 01:18:17;;;;;;;;;;;;;;;23.01;45.34;93722.03;5015734;28;9584;-60
2024/03/08 01:20:51;;;;;;;;;;;;;;;23.01;45.51;93720.00;5095140;28;6952;-61
2024/03/08 01:23:18;;;;;;;;;;;;;;;23.01;45.32;93720.00;5091739;28;8749;-60
2024/03/08 01:25:44;;;;;;;;;;;;;;;22.99;44.60;93717.03;5086278;28;7226;-58
2024/03/08 01:28:10;;;;;;;;;;;;;;;22.97;45.38;93714.06;5092225;28;8940;-58
2024/03/08 01:30:46;;;;;;;;;;;;;;;22.99;45.26;93706.06;5111446;28;9404;-58
2024/03/08 01:33:13;;;;;;;;;;;;;;;22.99;45.20;93706.06;5086137;28;9128;-58
2024/03/08 01:35:46;;;;;;;;;;;;;;;22.97;44.86;93697.59;5089069;28;9769;-58
2024/03/08 01:38:19;;;;;;;;;;;;;;;22.98;45.15;93703.84;5086323;28;9148;-58
2024/03/08 01:40:51;;;;;;;;;;;;;;;22.97;44.97;93703.09;5091654;28;7274;-58
2024/03/08 01:43:22;;;;;;;;;;;;;;;22.96;45.15;93701.63;5091317;28;9236;-58
2024/03/08 01:45:50;;;;;;;;;;;;;;;22.97;45.15;93697.59;5091609;28;7000;-58
2024/03/08 01:48:18;;;;;;;;;;;;;;;22.97;45.04;93692.13;5099026;28;9392;-58
2024/03/08 01:50:45;;;;;;;;;;;;;;;22.98;45.04;93688.16;5083604;28;9489;-58
2024/03/08 01:53:12;;;;;;;;;;;;;;;22.97;45.05;93686.66;5103165;28;9364;-58
2024/03/08 01:55:41;;;;;;;;;;;;;;;22.97;45.28;93680.41;5099562;28;8874;-58
2024/03/08 01:58:10;;;;;;;;;;;;;;;22.98;45.10;93677.16;5084273;28;9351;-58
2024/03/08 02:00:46;;;;;;;;;;;;;;;23.00;44.93;93690.38;5090648;28;9058;-58
2024/03/08 02:03:19;;;;;;;;;;;;;;;23.01;44.86;93678.88;5075346;28;9289;-58
2024/03/08 02:06:16;;;;;;;;;;;;;;;22.99;45.02;93673.16;5089918;28;9135;-59
2024/03/08 02:08:53;;;;;;;;;;;;;;;22.99;44.86;93673.16;5080984;28;9138;-58
2024/03/08 02:11:21;;;;;;;;;;;;;;;22.95;45.03;93667.22;5100946;28;9058;-58
2024/03/08 02:14:02;;;;;;;;;;;;;;;22.95;44.72;93661.72;5090414;28;7036;-58
2024/03/08 02:16:41;;;;;;;;;;;;;;;22.97;45.18;93658.47;5105821;28;9463;-58
2024/03/08 02:19:26;;;;;;;;;;;;;;;22.96;45.05;93651.50;5084557;28;9336;-58
2024/03/08 02:22:12;;;;;;;;;;;;;;;22.97;44.82;93653.72;5098851;28;9075;-58
2024/03/08 02:24:54;;;;;;;;;;;;;;;22.98;45.14;93649.75;5085425;28;7226;-58
2024/03/08 02:27:37;;;;;;;;;;;;;;;22.98;44.54;93649.00;5093888;28;7300;-58
2024/03/08 02:30:22;;;;;;;;;;;;;;;22.94;45.15;93637.56;5110461;28;8876;-58
2024/03/08 02:32:50;;;;;;;;;;;;;;;22.95;44.75;93647.28;5093494;28;9448;-58
2024/03/08 02:35:22;;;;;;;;;;;;;;;22.95;44.70;93636.28;5089110;28;8467;-56
2024/03/08 02:37:50;;;;;;;;;;;;;;;22.95;44.94;93633.56;5086049;28;9746;-56
2024/03/08 02:40:17;;;;;;;;;;;;;;;22.96;44.88;93632.31;5107945;28;8561;-56
2024/03/08 02:42:43;;;;;;;;;;;;;;;22.95;44.71;93631.56;5082778;28;9136;-57
2024/03/08 02:45:11;;;;;;;;;;;;;;;22.95;44.76;93628.81;5092157;28;9409;-56
2024/03/08 02:47:37;;;;;;;;;;;;;;;22.96;44.27;93626.84;5085392;28;7118;-56
2024/03/08 02:50:03;;;;;;;;;;;;;;;22.98;44.75;93618.84;5077568;28;7113;-56
2024/03/08 02:52:30;;;;;;;;;;;;;;;22.96;44.61;93624.09;5091851;28;9021;-56
2024/03/08 02:54:56;;;;;;;;;;;;;;;22.96;44.89;93619.34;5077848;28;9042;-56
2024/03/08 02:57:22;;;;;;;;;;;;;;;22.95;44.71;93623.34;5072416;28;9408;-56
2024/03/08 02:59:59;;;;;;;;;;;;;;;22.94;44.80;93613.63;5089324;28;9815;-56
2024/03/08 03:02:27;;;;;;;;;;;;;;;22.95;44.55;93617.84;5074068;28;9465;-56
2024/03/08 03:04:58;;;;;;;;;;;;;;;22.95;44.67;93615.13;5089314;28;9051;-56
2024/03/08 03:07:27;;;;;;;;;;;;;;;22.96;44.79;93613.13;5092598;28;9681;-56
2024/03/08 03:10:31;;;;;;;;;;;;;;;22.96;44.74;93613.13;5087177;28;7242;-56
2024/03/08 03:12:57;;;;;;;;;;;;;;;22.94;44.86;93605.41;5079812;28;9581;-56
2024/03/08 03:15:23;;;;;;;;;;;;;;;22.91;44.92;93611.91;5089172;28;9313;-56
2024/03/08 03:17:51;;;;;;;;;;;;;;;22.95;44.69;93606.88;5090236;28;9117;-56
2024/03/08 03:20:40;;;;;;;;;;;;;;;22.95;44.39;93601.41;5087512;28;9820;-56
2024/03/08 03:23:45;;;;;;;;;;;;;;;22.93;44.91;93597.69;5089245;28;9322;-56
2024/03/08 03:26:17;;;;;;;;;;;;;;;22.93;44.82;93592.94;5023137;28;9547;-56
2024/03/08 03:29:12;;;;;;;;;;;;;;;22.93;44.88;93592.94;5019213;28;7165;-56
2024/03/08 03:31:40;;;;;;;;;;;;;;;22.95;44.61;93595.91;4939169;29;9398;-56
2024/03/08 03:34:18;;;;;;;;;;;;;;;22.97;44.77;93604.38;4949830;29;9762;-56
2024/03/08 03:36:47;;;;;;;;;;;;;;;22.97;44.97;93593.41;4952820;29;9689;-56
2024/03/08 03:39:15;;;;;;;;;;;;;;;22.99;44.89;93596.38;4937415;29;9665;-56
2024/03/08 03:41:44;;;;;;;;;;;;;;;22.93;44.58;93587.47;4930164;29;9371;-56
2024/03/08 03:44:10;;;;;;;;;;;;;;;22.97;44.71;93593.41;4927481;29;9692;-62
2024/03/08 03:46:46;;;;;;;;;;;;;;;22.95;44.67;93595.91;4918495;29;7107;-58
2024/03/08 03:49:12;;;;;;;;;;;;;;;22.96;44.52;93582.94;4929088;29;9161;-59
2024/03/08 03:51:40;;;;;;;;;;;;;;;22.95;44.74;93584.19;4942133;29;8771;-59
2024/03/08 03:54:06;;;;;;;;;;;;;;;22.97;44.85;93584.44;4953220;29;7029;-59
2024/03/08 03:56:34;;;;;;;;;;;;;;;22.98;44.14;93583.94;4943819;29;7506;-59
2024/03/08 03:59:02;;;;;;;;;;;;;;;22.97;44.42;93582.44;4942972;28;8879;-58
2024/03/08 04:01:34;;;;;;;;;;;;;;;22.96;44.66;93582.94;4977642;28;9548;-58
2024/03/08 04:04:00;;;;;;;;;;;;;;;22.98;44.53;93589.41;4988404;28;8693;-58
2024/03/08 04:06:26;;;;;;;;;;;;;;;22.98;44.58;93577.69;4993304;28;8694;-58
2024/03/08 04:08:52;;;;;;;;;;;;;;;22.95;44.31;93573.97;5075280;28;9005;-59
2024/03/08 04:11:18;;;;;;;;;;;;;;;22.97;44.08;93571.47;5091054;28;9154;-59
2024/03/08 04:13:44;;;;;;;;;;;;;;;22.97;44.47;93576.94;5087807;28;9177;-58
2024/03/08 04:16:11;;;;;;;;;;;;;;;22.98;44.78;93572.97;5081129;28;8930;-59
2024/03/08 04:18:52;;;;;;;;;;;;;;;23.00;44.62;93575.19;5094445;28;9245;-59
2024/03/08 04:21:20;;;;;;;;;;;;;;;22.99;44.38;93570.94;5093643;28;9159;-58
2024/03/08 04:24:13;;;;;;;;;;;;;;;23.01;44.71;93560.94;5076072;28;8969;-59
2024/03/08 04:26:42;;;;;;;;;;;;;;;23.00;44.15;93569.69;5079772;28;8752;-58
2024/03/08 04:29:09;;;;;;;;;;;;;;;22.98;44.44;93567.47;5087762;28;7036;-59
2024/03/08 04:31:37;;;;;;;;;;;;;;;22.98;44.64;93567.47;5095335;28;7259;-59
2024/03/08 04:34:11;;;;;;;;;;;;;;;23.00;44.18;93564.97;5095514;28;9759;-58
2024/03/08 04:36:59;;;;;;;;;;;;;;;22.99;44.70;93566.22;5091639;28;7217;-58
2024/03/08 04:39:34;;;;;;;;;;;;;;;23.01;44.29;93560.94;5076328;28;9539;-58
2024/03/08 04:42:06;;;;;;;;;;;;;;;23.00;44.78;93562.22;5106772;28;9116;-58
2024/03/08 04:44:40;;;;;;;;;;;;;;;23.02;44.24;93561.69;5091422;28;7130;-58
2024/03/08 04:47:14;;;;;;;;;;;;;;;23.02;44.64;93567.94;5087824;28;8993;-59
2024/03/08 04:49:40;;;;;;;;;;;;;;;23.01;44.48;93557.50;5081195;28;9070;-59
2024/03/08 04:52:12;;;;;;;;;;;;;;;23.02;44.47;93556.97;5095497;28;8872;-59
2024/03/08 04:54:37;;;;;;;;;;;;;;;23.02;44.32;93559.72;5093365;28;7104;-57
2024/03/08 04:57:04;;;;;;;;;;;;;;;23.01;44.23;93563.69;5093110;28;9507;-57
2024/03/08 04:59:38;;;;;;;;;;;;;;;23.01;44.32;93560.94;5089739;28;7046;-57
2024/03/08 05:02:04;;;;;;;;;;;;;;;23.01;44.35;93552.72;5091719;28;8696;-57
2024/03/08 05:04:31;;;;;;;;;;;;;;;23.02;44.15;93551.47;5090546;28;9069;-57
2024/03/08 05:07:01;;;;;;;;;;;;;;;23.03;44.34;93552.94;5101382;28;8895;-57
2024/03/08 05:09:42;;;;;;;;;;;;;;;23.02;43.89;93546.00;5075672;28;9495;-57
2024/03/08 05:12:15;;;;;;;;;;;;;;;23.00;44.35;93543.03;5094234;28;8647;-57
2024/03/08 05:14:43;;;;;;;;;;;;;;;23.01;44.49;93547.25;5074775;28;9022;-57
2024/03/08 05:17:19;;;;;;;;;;;;;;;23.02;44.28;93535.03;5098917;28;7183;-57
2024/03/08 05:19:46;;;;;;;;;;;;;;;23.05;44.14;93546.97;5087521;28;8942;-57
2024/03/08 05:22:13;;;;;;;;;;;;;;;23.04;44.15;93540.75;5084218;28;6993;-57
2024/03/08 05:24:42;;;;;;;;;;;;;;;23.04;44.43;93554.44;5082263;28;9327;-57
2024/03/08 05:27:43;;;;;;;;;;;;;;;23.02;44.32;93559.72;5103374;28;9627;-57
2024/03/08 05:30:44;;;;;;;;;;;;;;;23.01;44.53;93560.22;5030726;28;9565;-57
2024/03/08 05:33:14;;;;;;;;;;;;;;;23.01;44.71;93558.22;5025933;28;9534;-57
2024/03/08 05:35:52;;;;;;;;;;;;;;;23.01;44.64;93560.94;5034467;28;9242;-57
2024/03/08 05:38:54;;;;;;;;;;;;;;;23.03;44.42;93557.72;5040209;28;7510;-57
2024/03/08 05:41:32;;;;;;;;;;;;;;;22.99;44.61;93555.25;5031153;28;7245;-57
2024/03/08 05:44:04;;;;;;;;;;;;;;;23.04;43.81;93559.19;5031146;28;8639;-60
2024/03/08 05:46:32;;;;;;;;;;;;;;;23.04;44.91;93556.44;5052969;28;9313;-59
2024/03/08 05:49:05;;;;;;;;;;;;;;;23.06;44.78;93557.41;5051213;28;9092;-60
2024/03/08 05:51:32;;;;;;;;;;;;;;;23.08;44.90;93551.41;5052789;28;9070;-60
2024/03/08 05:53:59;;;;;;;;;;;;;;;23.07;44.35;93547.94;5052571;28;7024;-60
2024/03/08 05:56:36;;;;;;;;;;;;;;;23.10;44.55;93546.91;5046437;28;7233;-60
2024/03/08 05:59:18;;;;;;;;;;;;;;;23.10;44.87;93546.91;5051498;28;9146;-59
2024/03/08 06:01:58;;;;;;;;;;;;;;;23.11;44.55;93544.91;5030931;28;9083;-58
2024/03/08 06:04:32;;;;;;;;;;;;;;;23.15;45.13;93543.38;5050727;28;9158;-58
2024/03/08 06:07:12;;;;;;;;;;;;;;;23.13;44.90;93548.63;5080534;28;7115;-57
2024/03/08 06:09:40;;;;;;;;;;;;;;;23.15;44.83;93537.88;5096400;28;7154;-58
2024/03/08 06:12:10;;;;;;;;;;;;;;;23.16;45.41;93544.84;5099979;28;10393;-57
2024/03/08 06:14:49;;;;;;;;;;;;;;;23.13;45.54;93545.13;5094764;28;8730;-56
2024/03/08 06:17:15;;;;;;;;;;;;;;;23.12;45.30;93533.41;5091637;28;9528;-58
2024/03/08 06:20:10;;;;;;;;;;;;;;;23.18;45.53;93530.63;5098512;28;7881;-58
2024/03/08 06:23:06;;;;;;;;;;;;;;;23.19;45.33;93532.09;5095189;28;9527;-58
2024/03/08 06:25:48;;;;;;;;;;;;;;;23.20;43.84;93548.06;5045533;28;9840;-58
2024/03/08 06:28:41;;;;;;;;;;;;;;;23.14;42.67;93547.34;5028157;28;7110;-58
2024/03/08 06:31:20;;;;;;;;;;;;;;;23.10;43.05;93551.63;5041186;28;9603;-57
2024/03/08 06:34:19;;;;;;;;;;;;;;;23.02;43.42;93548.00;5030224;28;7088;-57
2024/03/08 06:37:21;;;;;;;;;;;;;;;22.96;44.23;93545.31;4982984;28;8663;-58
2024/03/08 06:40:20;;;;;;;;;;;;;;;22.98;44.11;93551.03;4981542;28;8843;-56
2024/03/08 06:42:48;;;;;;;;;;;;;;;23.03;44.46;93544.72;4950699;28;8953;-57
2024/03/08 06:45:28;;;;;;;;;;;;;;;23.07;43.90;93550.69;4932547;29;8864;-57
2024/03/08 06:47:54;;;;;;;;;;;;;;;23.03;44.18;93544.72;4936091;28;9451;-57
2024/03/08 06:50:20;;;;;;;;;;;;;;;23.07;44.08;93547.94;4953487;28;8945;-57
2024/03/08 06:52:50;;;;;;;;;;;;;;;23.06;44.41;93540.97;4953504;28;9222;-57
2024/03/08 06:55:17;;;;;;;;;;;;;;;23.07;44.30;93541.72;4952931;28;9033;-57
2024/03/08 06:58:04;;;;;;;;;;;;;;;23.07;44.57;93534.22;4953071;29;9400;-57
2024/03/08 07:00:44;;;;;;;;;;;;;;;23.07;44.70;93531.50;4935039;29;8201;-57
2024/03/08 07:03:45;;;;;;;;;;;;;;;23.05;43.69;93536.72;4973685;28;9802;-58
2024/03/08 07:06:12;;;;;;;;;;;;;;;22.96;42.81;93537.09;4935178;29;9432;-58
2024/03/08 07:08:40;;;;;;;;;;;;;;;22.91;43.87;93526.91;4937339;29;9131;-59
2024/03/08 07:11:41;;;;;;;;;;;;;;;22.91;43.91;93526.16;4950420;29;9020;-59
2024/03/08 07:14:26;;;;;;;;;;;;;;;22.88;44.61;93518.97;4955062;28;9259;-59
2024/03/08 07:17:08;;;;;;;;;;;;;;;22.89;44.54;93517.72;4955213;28;7036;-59
2024/03/08 07:19:35;;;;;;;;;;;;;;;22.91;44.24;93524.16;4957160;28;9470;-59
2024/03/08 07:22:23;;;;;;;;;;;;;;;22.93;44.80;93527.13;4957240;28;9368;-58
2024/03/08 07:25:10;;;;;;;;;;;;;;;22.92;44.73;93514.66;4959703;28;7041;-58
2024/03/08 07:27:37;;;;;;;;;;;;;;;22.97;44.54;93519.38;4964932;28;9436;-59
2024/03/08 07:33:22;;;;;;;;;;;;;;;22.98;44.56;93512.63;4944181;29;7290;-59
2024/03/08 07:36:02;;;;;;;;;;;;;;;22.99;44.93;93508.63;4947746;29;9575;-59
2024/03/08 07:38:29;;;;;;;;;;;;;;;23.00;44.60;93515.59;4952137;29;9172;-58
2024/03/08 07:41:06;;;;;;;;;;;;;;;23.00;44.46;93515.59;5007881;28;9425;-59
2024/03/08 07:43:32;;;;;;;;;;;;;;;23.03;45.05;93520.03;5021744;28;7624;-59
2024/03/08 07:46:23;;;;;;;;;;;;;;;23.04;44.96;93521.53;5026982;28;8715;-59
2024/03/08 07:48:49;;;;;;;;;;;;;;;23.02;44.55;93521.31;5009129;28;9141;-59
2024/03/08 07:51:17;;;;;;;;;;;;;;;22.99;44.24;93519.59;5013501;28;9090;-59
2024/03/08 07:53:43;;;;;;;;;;;;;;;22.98;44.85;93517.38;4999575;28;7711;-59
2024/03/08 07:56:13;;;;;;;;;;;;;;;22.95;44.15;93512.91;4998454;28;8988;-59
2024/03/08 07:58:40;;;;;;;;;;;;;;;22.93;43.92;93513.44;5017674;28;9052;-59
2024/03/08 08:01:23;;;;;;;;;;;;;;;22.97;44.04;93507.66;5008941;28;8762;-59
2024/03/08 08:04:11;;;;;;;;;;;;;;;22.93;44.01;93505.19;5016974;28;8787;-59
2024/03/08 08:06:44;;;;;;;;;;;;;;;22.94;43.94;93505.94;5037668;28;9278;-58
2024/03/08 08:09:28;;;;;;;;;;;;;;;22.93;43.66;93507.94;5105150;28;8999;-59
2024/03/08 08:11:58;;;;;;;;;;;;;;;22.91;44.05;93513.19;5078554;28;9000;-58
2024/03/08 08:14:23;;;;;;;;;;;;;;;22.92;44.06;93506.44;5089161;28;8994;-61
2024/03/08 08:16:52;;;;;;;;;;;;;;;22.92;44.21;93505.72;5082192;28;9432;-62
2024/03/08 08:19:19;;;;;;;;;;;;;;;22.95;43.94;93501.94;5097609;28;7033;-62
2024/03/08 08:21:50;;;;;;;;;;;;;;;22.95;43.85;93502.69;5078662;28;9342;-62
2024/03/08 08:24:17;;;;;;;;;;;;;;;22.93;44.08;93491.50;5092926;28;8806;-62
2024/03/08 08:26:44;;;;;;;;;;;;;;;22.98;44.18;93501.66;5095627;28;9156;-61
2024/03/08 08:29:25;;;;;;;;;;;;;;;22.96;44.21;93490.47;5094310;28;8732;-61
2024/03/08 08:31:52;;;;;;;;;;;;;;;23.01;44.28;93495.13;5086894;28;9264;-62
2024/03/08 08:34:19;;;;;;;;;;;;;;;23.00;44.22;93492.91;5091343;28;8805;-62
2024/03/08 08:36:45;;;;;;;;;;;;;;;22.98;44.41;93485.22;5111023;28;9383;-62
2024/03/08 08:39:13;;;;;;;;;;;;;;;23.05;44.62;93494.88;5084381;28;8759;-62
2024/03/08 08:41:41;;;;;;;;;;;;;;;23.01;44.73;93495.13;5090816;28;9556;-62
2024/03/08 08:44:12;;;;;;;;;;;;;;;23.04;44.49;93487.88;5076233;28;9414;-62
2024/03/08 08:46:41;;;;;;;;;;;;;;;23.02;44.74;93484.91;5096411;28;9467;-62
2024/03/08 08:49:10;;;;;;;;;;;;;;;23.00;43.66;93479.94;5083942;28;9800;-63
2024/03/08 08:51:36;;;;;;;;;;;;;;;22.94;42.77;93481.28;5093163;28;9100;-62
2024/03/08 08:54:02;;;;;;;;;;;;;;;22.90;43.75;93467.84;5104079;28;8862;-62
2024/03/08 08:56:28;;;;;;;;;;;;;;;22.89;44.14;93468.34;5095736;28;9025;-62
2024/03/08 08:58:55;;;;;;;;;;;;;;;22.90;43.76;93472.59;5089734;28;9497;-62
2024/03/08 09:01:34;;;;;;;;;;;;;;;22.89;44.28;93460.88;5099883;28;9132;-63
2024/03/08 09:04:02;;;;;;;;;;;;;;;22.93;44.12;93461.31;5085804;28;7294;-63
2024/03/08 09:06:29;;;;;;;;;;;;;;;22.98;43.85;93468.75;5094522;28;8767;-63
2024/03/08 09:08:55;;;;;;;;;;;;;;;22.99;43.85;93464.00;5091533;28;6864;-64
2024/03/08 09:11:21;;;;;;;;;;;;;;;23.01;44.19;93469.72;5096177;28;7404;-64
2024/03/08 09:13:48;;;;;;;;;;;;;;;23.02;43.99;93463.72;5095703;28;7158;-63
2024/03/08 09:16:15;;;;;;;;;;;;;;;23.03;44.06;93459.72;5091665;28;9107;-63
2024/03/08 09:18:41;;;;;;;;;;;;;;;23.00;43.99;93451.78;5096359;28;7099;-61
2024/03/08 09:21:09;;;;;;;;;;;;;;;23.05;43.95;93457.19;5084250;28;9245;-61
2024/03/08 09:23:44;;;;;;;;;;;;;;;23.11;43.77;93455.16;5086440;28;8989;-61
2024/03/08 09:26:12;;;;;;;;;;;;;;;23.12;43.90;93453.88;5074552;28;8061;-66
2024/03/08 09:29:06;;;;;;;;;;;;;;;23.12;44.09;93451.13;5086088;28;7203;-59
2024/03/08 09:31:34;;;;;;;;;;;;;;;23.09;43.92;93452.19;5084310;28;8516;-59
2024/03/08 09:34:00;;;;;;;;;;;;;;;23.09;44.18;93448.69;5079631;28;9913;-59
2024/03/08 09:36:32;;;;;;;;;;;;;;;23.09;43.54;93449.44;5087088;28;8588;-59
2024/03/08 09:39:28;;;;;;;;;;;;;;;23.08;44.43;93447.94;5082213;28;9646;-59
2024/03/08 09:42:05;;;;;;;;;;;;;;;23.06;44.24;93442.22;5033603;28;8723;-59
2024/03/08 09:44:52;;;;;;;;;;;;;;;23.07;44.31;93438.25;5034852;28;9760;-59
2024/03/08 09:47:24;;;;;;;;;;;;;;;23.05;43.79;93434.53;5025563;28;7292;-59
2024/03/08 09:49:53;;;;;;;;;;;;;;;23.02;43.31;93435.56;5047424;28;9458;-60
2024/03/08 09:52:21;;;;;;;;;;;;;;;22.99;43.36;93436.56;5037560;28;9056;-60
2024/03/08 09:54:50;;;;;;;;;;;;;;;22.98;42.97;93427.63;5051605;28;8959;-60
2024/03/08 09:57:18;;;;;;;;;;;;;;;22.98;43.45;93427.63;5042635;28;7296;-60
2024/03/08 10:00:24;;;;;;;;;;;;;;;23.00;43.19;93427.09;5044661;28;9401;-59
2024/03/08 10:03:15;;;;;;;;;;;;;;;23.01;43.18;93431.34;5023521;28;7109;-60
2024/03/08 10:05:42;;;;;;;;;;;;;;;22.96;43.44;93413.69;5044044;28;7023;-60
2024/03/08 10:08:17;;;;;;;;;;;;;;;23.01;43.49;93421.09;5028851;28;7314;-60
2024/03/08 10:10:46;;;;;;;;;;;;;;;23.02;43.50;93419.09;5049645;28;9076;-60
2024/03/08 10:13:23;;;;;;;;;;;;;;;22.98;43.18;93408.44;5034906;28;9405;-60
2024/03/08 10:15:51;;;;;;;;;;;;;;;23.01;43.59;93423.13;5044001;28;9114;-60
2024/03/08 10:18:24;;;;;;;;;;;;;;;23.05;43.75;93413.31;5077585;28;9507;-60
2024/03/08 10:21:15;;;;;;;;;;;;;;;23.05;43.80;93407.09;5082280;28;8637;-60
2024/03/08 10:23:44;;;;;;;;;;;;;;;23.06;43.31;93412.06;5088514;28;8776;-60
2024/03/08 10:26:14;;;;;;;;;;;;;;;23.09;43.54;93408.28;5087616;28;6872;-65
2024/03/08 10:28:44;;;;;;;;;;;;;;;23.13;43.34;93397.78;5079062;28;9607;-62
2024/03/08 10:31:11;;;;;;;;;;;;;;;23.23;45.12;93398.13;5093226;28;9116;-62
2024/03/08 10:33:41;;;;;;;;;;;;;;;23.31;45.49;93392.81;5077012;28;8860;-62
2024/03/08 10:36:10;;;;;;;;;;;;;;;23.37;49.54;93402.47;5062275;28;8624;-59
2024/03/08 10:38:40;;;;;;;;;;;;;;;23.61;49.81;93402.38;5089694;28;7440;-59
2024/03/08 10:41:24;;;;;;;;;;;;;;;23.79;49.09;93396.09;5073406;28;9173;-60
2024/03/08 10:44:43;;;;;;;;;;;;;;;24.00;47.65;93396.28;5085032;28;9637;-58
2024/03/08 10:47:40;;;;;;;;;;;;;;;24.16;46.89;93400.81;5023729;28;9082;-58
2024/03/08 10:50:21;;;;;;;;;;;;;;;24.22;43.46;93392.47;4995047;28;7457;-60
2024/03/08 10:52:51;;;;;;;;;;;;;;;24.20;43.49;93376.50;4995328;28;9398;-59
2024/03/08 10:55:26;;;;;;;;;;;;;;;24.03;42.81;93386.28;4995850;28;6864;-58
2024/03/08 10:58:08;;;;;;;;;;;;;;;23.83;42.54;93379.34;4992584;28;7029;-57
2024/03/08 11:00:35;;;;;;;;;;;;;;;23.68;42.76;93377.09;4999613;28;9179;-58
2024/03/08 11:03:38;;;;;;;;;;;;;;;23.58;43.80;93372.47;4996020;28;9429;-57
2024/03/08 11:06:08;;;;;;;;;;;;;;;23.52;43.99;93366.34;5011371;28;8239;-57
2024/03/08 11:08:43;;;;;;;;;;;;;;;23.54;43.74;93358.31;4994234;28;9230;-58
2024/03/08 11:12:00;;;;;;;;;;;;;;;23.53;44.65;93357.56;4994624;28;9431;-57
2024/03/08 11:14:49;;;;;;;;;;;;;;;23.57;44.25;93365.50;4994442;28;7227;-57
2024/03/08 11:17:48;;;;;;;;;;;;;;;23.60;44.24;93365.19;4979577;28;9142;-58
2024/03/08 11:20:50;;;;;;;;;;;;;;;23.62;44.07;93357.19;4993994;28;7256;-60
2024/03/08 11:23:31;;;;;;;;;;;;;;;23.66;44.37;93359.66;4960991;28;9444;-60
2024/03/08 11:26:32;;;;;;;;;;;;;;;23.72;44.65;93357.56;4982605;28;8986;-60
2024/03/08 11:29:44;;;;;;;;;;;;;;;23.75;43.97;93349.00;4983733;28;9357;-61
2024/03/08 11:32:19;;;;;;;;;;;;;;;23.78;44.06;93347.97;4986408;28;9087;-60
2024/03/08 11:34:50;;;;;;;;;;;;;;;23.88;43.78;93351.78;4986602;28;7253;-60
2024/03/08 11:37:30;;;;;;;;;;;;;;;23.95;44.14;93353.16;4995394;28;9357;-60
2024/03/08 11:40:17;;;;;;;;;;;;;;;24.03;44.26;93342.31;4999603;28;7034;-60
2024/03/08 11:43:06;;;;;;;;;;;;;;;24.16;43.52;93351.38;4985579;28;8700;-60
2024/03/08 11:45:41;;;;;;;;;;;;;;;24.25;43.73;93345.44;4986926;28;8187;-62
2024/03/08 11:48:17;;;;;;;;;;;;;;;24.33;43.20;93340.81;5003070;28;7205;-65
2024/03/08 11:50:43;;;;;;;;;;;;;;;24.39;43.59;93335.19;5015540;28;9054;-62
2024/03/08 11:53:09;;;;;;;;;;;;;;;24.45;43.07;93335.84;5015316;28;9363;-61
2024/03/08 11:55:35;;;;;;;;;;;;;;;24.48;43.15;93316.28;5007526;28;8721;-61
2024/03/08 11:58:12;;;;;;;;;;;;;;;24.53;42.69;93311.97;5027793;28;9352;-61
2024/03/08 12:00:38;;;;;;;;;;;;;;;24.57;41.91;93323.38;5069359;28;9522;-62
2024/03/08 12:03:18;;;;;;;;;;;;;;;24.57;42.32;93313.13;5086218;28;9211;-63
2024/03/08 12:05:47;;;;;;;;;;;;;;;24.59;42.37;93309.84;5091874;28;9010;-62
2024/03/08 12:08:15;;;;;;;;;;;;;;;24.63;42.19;93305.50;5082424;28;9038;-62
2024/03/08 12:10:43;;;;;;;;;;;;;;;24.64;42.36;93301.47;5091686;28;9691;-62
2024/03/08 12:13:29;;;;;;;;;;;;;;;24.61;42.50;93297.03;5088308;28;8849;-62
2024/03/08 12:15:59;;;;;;;;;;;;;;;24.66;42.99;93298.91;5084881;28;7475;-62
2024/03/08 12:18:34;;;;;;;;;;;;;;;24.68;43.27;93296.38;5082951;28;9454;-63
2024/03/08 12:21:48;;;;;;;;;;;;;;;24.69;41.16;93280.63;5105491;28;9086;-62
2024/03/08 12:24:27;;;;;;;;;;;;;;;24.70;40.97;93282.13;5033743;28;8704;-62
2024/03/08 12:26:53;;;;;;;;;;;;;;;24.72;41.48;93274.06;5049698;28;9107;-62
2024/03/08 12:29:22;;;;;;;;;;;;;;;24.73;41.25;93270.78;5043587;28;8626;-61
2024/03/08 12:31:58;;;;;;;;;;;;;;;24.77;40.80;93278.75;5047192;28;9389;-62
2024/03/08 12:34:34;;;;;;;;;;;;;;;24.79;40.82;93275.47;5051647;28;8990;-62
2024/03/08 12:37:14;;;;;;;;;;;;;;;24.82;40.65;93266.13;5038492;28;9350;-62
2024/03/08 12:39:42;;;;;;;;;;;;;;;24.82;40.68;93268.88;5050686;28;8916;-62
2024/03/08 12:42:28;;;;;;;;;;;;;;;24.82;40.65;93260.63;5035482;28;9082;-62
2024/03/08 12:44:55;;;;;;;;;;;;;;;24.80;40.90;93254.94;5036459;28;9092;-62
2024/03/08 12:47:21;;;;;;;;;;;;;;;24.78;40.87;93263.72;5042985;28;9523;-62
2024/03/08 12:49:50;;;;;;;;;;;;;;;24.78;39.84;93260.22;5036734;28;9145;-62
2024/03/08 12:52:18;;;;;;;;;;;;;;;24.76;39.73;93251.78;5036962;28;8722;-61
2024/03/08 12:54:49;;;;;;;;;;;;;;;24.79;39.89;93245.22;5037021;28;7231;-60
2024/03/08 12:57:18;;;;;;;;;;;;;;;24.80;39.36;93241.19;5037372;28;9384;-60
2024/03/08 12:59:46;;;;;;;;;;;;;;;24.79;39.88;93243.22;5037017;28;9103;-61
2024/03/08 13:02:12;;;;;;;;;;;;;;;24.82;40.41;93233.88;5084269;28;7700;-60
2024/03/08 13:04:38;;;;;;;;;;;;;;;24.87;40.58;93240.53;5089745;28;8645;-60
2024/03/08 13:07:16;;;;;;;;;;;;;;;24.89;39.86;93227.72;5073303;28;9090;-60
2024/03/08 13:09:49;;;;;;;;;;;;;;;24.87;40.40;93219.28;5094058;28;8594;-60
2024/03/08 13:12:18;;;;;;;;;;;;;;;24.90;40.44;93220.22;5082065;28;9496;-61
2024/03/08 13:14:56;;;;;;;;;;;;;;;24.96;40.03;93220.84;5091703;28;7507;-60
2024/03/08 13:17:35;;;;;;;;;;;;;;;24.99;40.13;93214.28;5087418;28;7113;-61
2024/03/08 13:20:01;;;;;;;;;;;;;;;25.00;40.68;93207.47;5079106;28;7007;-60
2024/03/08 13:22:45;;;;;;;;;;;;;;;25.01;40.56;93211.72;5078718;28;9054;-60
2024/03/08 13:25:13;;;;;;;;;;;;;;;25.06;40.22;93219.09;5103681;28;9800;-61
2024/03/08 13:27:47;;;;;;;;;;;;;;;25.12;40.05;93212.19;5097021;28;8872;-61
2024/03/08 13:30:41;;;;;;;;;;;;;;;25.28;40.11;93210.31;5086579;28;9400;-61
2024/03/08 13:33:07;;;;;;;;;;;;;;;25.39;39.92;93204.56;5079436;28;9461;-61
2024/03/08 13:35:34;;;;;;;;;;;;;;;25.47;39.69;93196.41;5084299;28;9484;-61
2024/03/08 13:38:25;;;;;;;;;;;;;;;25.56;39.24;93199.38;5080714;28;8807;-61
2024/03/08 13:40:52;;;;;;;;;;;;;;;25.59;39.95;93190.06;5081477;28;8567;-61